createdAt,value
2023-04-02T00:00:29.453Z,83.37
2023-04-02T00:02:51.095Z,83.75
2023-04-02T00:05:30.167Z,83.85
2023-04-02T00:07:58.041Z,83.37
2023-04-02T00:10:39.858Z,83.30
2023-04-02T00:13:10.559Z,83.66
2023-04-02T00:15:34.130Z,83.35
2023-04-02T00:17:57.942Z,83.68
2023-04-02T00:20:22.131Z,83.15
2023-04-02T00:22:45.004Z,82.95
2023-04-02T00:25:14.109Z,83.09
2023-04-02T00:27:36.660Z,83.30
2023-04-02T00:29:59.801Z,83.26
2023-04-02T00:32:29.041Z,83.31
2023-04-02T00:34:51.589Z,83.23
2023-04-02T00:37:25.195Z,83.46
2023-04-02T00:39:47.784Z,83.03
2023-04-02T00:42:12.900Z,83.56
2023-04-02T00:44:44.037Z,83.70
2023-04-02T00:47:26.943Z,83.30
2023-04-02T00:49:59.448Z,83.51
2023-04-02T00:52:28.365Z,84.31
2023-04-02T00:55:01.096Z,83.81
2023-04-02T00:57:28.290Z,84.34
2023-04-02T01:00:21.410Z,84.06
2023-04-02T01:02:43.214Z,83.54
2023-04-02T01:05:25.827Z,83.46
2023-04-02T01:08:12.958Z,83.71
2023-04-02T01:10:58.650Z,83.39
2023-04-02T01:13:32.749Z,82.92
2023-04-02T01:16:16.891Z,83.20
2023-04-02T01:19:04.587Z,83.45
2023-04-02T01:22:08.637Z,83.62
2023-04-02T01:24:33.992Z,83.09
2023-04-02T01:27:04.095Z,83.21
2023-04-02T01:29:39.137Z,82.80
2023-04-02T01:32:07.776Z,82.78
2023-04-02T01:34:31.167Z,82.17
2023-04-02T01:37:32.229Z,82.30
2023-04-02T01:40:13.004Z,82.33
2023-04-02T01:42:46.046Z,82.05
2023-04-02T01:45:19.562Z,81.97
2023-04-02T01:47:44.753Z,82.27
2023-04-02T01:50:44.116Z,82.61
2023-04-02T01:53:15.083Z,82.16
2023-04-02T01:55:57.310Z,82.65
2023-04-02T01:58:26.392Z,81.88
2023-04-02T02:01:02.116Z,82.67
2023-04-02T02:03:25.329Z,82.12
2023-04-02T02:05:47.505Z,82.04
2023-04-02T02:08:31.506Z,82.35
2023-04-02T02:10:53.468Z,82.39
2023-04-02T02:13:16.436Z,82.52
2023-04-02T02:15:38.194Z,82.27
2023-04-02T02:18:06.872Z,82.09
2023-04-02T02:20:29.213Z,82.61
2023-04-02T02:22:51.960Z,81.98
2023-04-02T02:25:32.530Z,81.93
2023-04-02T02:28:14.156Z,81.75
2023-04-02T02:30:49.110Z,81.97
2023-04-02T02:33:24.083Z,82.27
2023-04-02T02:36:35.764Z,82.13
2023-04-02T02:39:13.410Z,82.12
2023-04-02T02:41:42.311Z,82.14
2023-04-02T02:44:11.096Z,81.58
2023-04-02T02:46:38.718Z,81.87
2023-04-02T02:49:05.663Z,81.96
2023-04-02T02:51:40.860Z,82.30
2023-04-02T02:54:06.695Z,81.98
2023-04-02T02:56:37.286Z,81.90
2023-04-02T02:59:00.319Z,81.98
2023-04-02T03:01:30.453Z,82.13
2023-04-02T03:03:55.435Z,81.58
2023-04-02T03:06:20.746Z,81.46
2023-04-02T03:09:14.895Z,81.41
2023-04-02T03:11:54.584Z,81.57
2023-04-02T03:14:32.654Z,81.43
2023-04-02T03:17:08.979Z,81.44
2023-04-02T03:19:46.332Z,81.42
2023-04-02T03:22:25.116Z,81.27
2023-04-02T03:25:02.075Z,81.42
2023-04-02T03:27:34.805Z,81.56
2023-04-02T03:30:09.621Z,81.30
2023-04-02T03:32:38.448Z,81.82
2023-04-02T03:35:22.651Z,81.46
2023-04-02T03:38:27.071Z,81.41
2023-04-02T03:41:47.298Z,81.72
2023-04-02T03:44:28.453Z,80.99
2023-04-02T03:47:10.718Z,81.17
2023-04-02T03:50:03.180Z,81.79
2023-04-02T03:52:29.281Z,81.89
2023-04-02T03:54:57.020Z,81.14
2023-04-02T03:57:33.134Z,81.35
2023-04-02T04:00:14.412Z,81.47
2023-04-02T04:02:54.721Z,81.35
2023-04-02T04:05:37.881Z,81.37
2023-04-02T04:08:18.690Z,81.23
2023-04-02T04:10:43.241Z,81.68
2023-04-02T04:13:38.978Z,81.20
2023-04-02T04:16:32.721Z,81.00
2023-04-02T04:19:24.820Z,81.30
2023-04-02T04:22:30.092Z,81.13
2023-04-02T04:25:33.821Z,81.21
2023-04-02T04:28:34.039Z,81.47
2023-04-02T04:31:31.040Z,80.83
2023-04-02T04:34:22.918Z,81.58
2023-04-02T04:37:07.958Z,81.56
2023-04-02T04:40:09.224Z,81.04
2023-04-02T04:42:58.187Z,81.36
2023-04-02T04:46:16.454Z,81.06
2023-04-02T04:49:09.477Z,81.04
2023-04-02T04:51:57.340Z,81.32
2023-04-02T04:54:40.395Z,80.98
2023-04-02T04:57:33.790Z,81.00
2023-04-02T05:00:45.502Z,80.78
2023-04-02T05:03:33.033Z,80.97
2023-04-02T05:06:34.036Z,80.81
2023-04-02T05:09:49.908Z,80.49
2023-04-02T05:12:51.517Z,80.20
2023-04-02T05:15:32.102Z,79.54
2023-04-02T05:18:34.720Z,78.99
2023-04-02T05:21:16.465Z,78.66
2023-04-02T05:24:00.164Z,78.74
2023-04-02T05:26:42.849Z,78.97
2023-04-02T05:29:26.488Z,78.55
2023-04-02T05:32:04.270Z,78.33
2023-04-02T05:34:42.629Z,78.45
2023-04-02T05:37:26.687Z,78.93
2023-04-02T05:39:56.859Z,79.05
2023-04-02T05:42:35.300Z,78.91
2023-04-02T05:45:41.293Z,78.43
2023-04-02T05:48:30.710Z,78.52
2023-04-02T05:51:11.995Z,78.45
2023-04-02T05:54:05.055Z,78.66
2023-04-02T05:56:48.837Z,77.68
2023-04-02T05:59:34.387Z,76.82
2023-04-02T06:02:36.339Z,76.85
2023-04-02T06:05:16.829Z,77.08
2023-04-02T06:08:03.361Z,77.05
2023-04-02T06:10:51.201Z,77.33
2023-04-02T06:13:25.241Z,77.65
2023-04-02T06:15:56.538Z,76.87
2023-04-02T06:18:36.821Z,76.73
2023-04-02T06:21:14.254Z,76.66
2023-04-02T06:23:56.958Z,76.02
2023-04-02T06:26:39.447Z,76.26
2023-04-02T06:29:40.215Z,75.85
2023-04-02T06:32:16.505Z,75.77
2023-04-02T06:34:48.904Z,76.60
2023-04-02T06:37:40.037Z,75.45
2023-04-02T06:40:35.683Z,75.83
2023-04-02T06:43:35.665Z,75.62
2023-04-02T06:46:42.412Z,75.63
2023-04-02T06:49:36.412Z,75.58
2023-04-02T06:52:13.728Z,75.43
2023-04-02T06:54:46.503Z,74.99
2023-04-02T06:57:18.668Z,74.82
2023-04-02T06:59:53.543Z,75.62
2023-04-02T07:02:39.349Z,76.19
2023-04-02T07:05:13.775Z,75.27
2023-04-02T07:07:50.923Z,74.77
2023-04-02T07:10:22.947Z,74.71
2023-04-02T07:12:54.835Z,74.29
2023-04-02T07:15:27.897Z,75.27
2023-04-02T07:18:00.390Z,75.21
2023-04-02T07:20:38.959Z,75.14
2023-04-02T07:23:15.796Z,74.75
2023-04-02T07:25:50.327Z,73.38
2023-04-02T07:28:23.173Z,74.26
2023-04-02T07:30:56.493Z,73.69
2023-04-02T07:33:31.213Z,74.39
2023-04-02T07:36:03.059Z,74.46
2023-04-02T07:38:34.825Z,73.81
2023-04-02T07:41:07.407Z,74.21
2023-04-02T07:43:40.300Z,74.56
2023-04-02T07:46:16.576Z,74.81
2023-04-02T07:48:48.408Z,74.04
2023-04-02T07:51:26.620Z,74.22
2023-04-02T07:53:58.408Z,73.50
2023-04-02T07:56:31.829Z,72.90
2023-04-02T07:59:05.046Z,73.02
2023-04-02T08:01:36.925Z,73.14
2023-04-02T08:04:18.882Z,72.95
2023-04-02T08:06:50.786Z,72.45
2023-04-02T08:09:22.740Z,72.84
2023-04-02T08:11:54.497Z,73.32
2023-04-02T08:14:26.397Z,72.51
2023-04-02T08:16:58.408Z,72.98
2023-04-02T08:19:30.795Z,72.36
2023-04-02T08:22:02.603Z,72.75
2023-04-02T08:24:34.427Z,72.65
2023-04-02T08:27:07.566Z,72.53
2023-04-02T08:29:39.376Z,72.83
2023-04-02T08:32:16.220Z,73.58
2023-04-02T08:34:47.985Z,73.77
2023-04-02T08:37:19.770Z,73.14
2023-04-02T08:39:51.630Z,73.02
2023-04-02T08:42:46.201Z,73.11
2023-04-02T08:45:40.190Z,73.38
2023-04-02T08:48:15.495Z,72.78
2023-04-02T08:50:47.585Z,72.70
2023-04-02T08:53:34.625Z,73.32
2023-04-02T08:56:26.077Z,72.64
2023-04-02T08:59:03.707Z,72.56
2023-04-02T09:02:01.833Z,72.77
2023-04-02T09:04:34.660Z,73.42
2023-04-02T09:07:17.053Z,73.12
2023-04-02T09:09:51.082Z,72.54
2023-04-02T09:12:29.287Z,72.58
2023-04-02T09:15:29.506Z,72.87
2023-04-02T09:18:17.926Z,72.57
2023-04-02T09:20:50.635Z,72.30
2023-04-02T09:23:26.170Z,71.92
2023-04-02T09:26:04.003Z,71.75
2023-04-02T09:28:38.036Z,71.88
2023-04-02T09:31:22.326Z,71.74
2023-04-02T09:33:54.818Z,71.72
2023-04-02T09:36:38.317Z,71.40
2023-04-02T09:39:23.236Z,71.49
2023-04-02T09:42:05.156Z,70.80
2023-04-02T09:44:37.895Z,70.94
2023-04-02T09:47:27.365Z,70.81
2023-04-02T09:50:34.116Z,70.93
2023-04-02T09:53:31.341Z,70.44
2023-04-02T09:56:15.256Z,70.70
2023-04-02T09:59:03.221Z,70.19
2023-04-02T10:01:57.082Z,70.81
2023-04-02T10:04:46.793Z,69.73
2023-04-02T10:07:43.732Z,69.75
2023-04-02T10:10:18.694Z,69.62
2023-04-02T10:12:59.680Z,69.36
2023-04-02T10:15:54.259Z,69.95
2023-04-02T10:18:49.684Z,70.13
2023-04-02T10:21:35.098Z,69.19
2023-04-02T10:24:16.264Z,68.49
2023-04-02T10:27:22.577Z,68.99
2023-04-02T10:30:09.562Z,68.54
2023-04-02T10:33:06.869Z,68.25
2023-04-02T10:36:19.603Z,68.98
2023-04-02T10:38:58.105Z,68.62
2023-04-02T10:42:12.207Z,69.44
2023-04-02T10:45:41.496Z,66.97
2023-04-02T10:48:33.766Z,68.08
2023-04-02T10:51:25.369Z,67.81
2023-04-02T10:54:13.719Z,67.48
2023-04-02T10:56:51.186Z,67.45
2023-04-02T10:59:30.132Z,67.07
2023-04-02T11:02:34.179Z,67.80
2023-04-02T11:05:22.005Z,67.02
2023-04-02T11:08:10.652Z,66.64
2023-04-02T11:10:50.669Z,65.77
2023-04-02T11:13:31.503Z,66.42
2023-04-02T11:16:03.957Z,66.76
2023-04-02T11:18:37.184Z,66.56
2023-04-02T11:21:57.996Z,67.01
2023-04-02T11:24:38.561Z,66.03
2023-04-02T11:27:28.100Z,65.37
2023-04-02T11:30:26.493Z,65.20
2023-04-02T11:33:38.108Z,65.77
2023-04-02T11:36:53.636Z,65.88
2023-04-02T11:39:53.549Z,66.09
2023-04-02T11:42:34.506Z,65.96
2023-04-02T11:45:24.568Z,65.74
2023-04-02T11:47:59.587Z,65.30
2023-04-02T11:50:31.557Z,65.52
2023-04-02T11:53:20.466Z,65.55
2023-04-02T11:56:02.130Z,66.56
2023-04-02T11:59:00.379Z,65.81
2023-04-02T12:02:03.407Z,65.78
2023-04-02T12:05:16.398Z,65.16
2023-04-02T12:08:05.799Z,64.40
2023-04-02T12:10:56.595Z,65.09
2023-04-02T12:13:40.533Z,65.81
2023-04-02T12:16:14.273Z,64.80
2023-04-02T12:18:54.521Z,63.09
2023-04-02T12:21:29.488Z,62.75
2023-04-02T12:24:03.824Z,63.15
2023-04-02T12:26:38.084Z,61.80
2023-04-02T12:29:26.845Z,63.21
2023-04-02T12:31:59.971Z,61.79
2023-04-02T12:34:31.853Z,60.91
2023-04-02T12:37:05.517Z,60.48
2023-04-02T12:39:37.374Z,59.78
2023-04-02T12:42:37.632Z,59.93
2023-04-02T12:45:41.756Z,57.96
2023-04-02T12:48:13.731Z,59.17
2023-04-02T12:50:47.248Z,58.95
2023-04-02T12:53:24.057Z,58.95
2023-04-02T12:55:56.315Z,59.51
2023-04-02T12:58:41.442Z,59.51
2023-04-02T13:01:24.697Z,59.13
2023-04-02T13:04:12.383Z,57.70
2023-04-02T13:06:55.163Z,58.29
2023-04-02T13:09:39.283Z,56.86
2023-04-02T13:12:34.514Z,56.03
2023-04-02T13:15:19.964Z,54.24
2023-04-02T13:18:13.375Z,54.09
2023-04-02T13:21:06.251Z,55.85
2023-04-02T13:23:38.112Z,55.35
2023-04-02T13:26:24.511Z,54.74
2023-04-02T13:29:19.340Z,55.00
2023-04-02T13:31:54.115Z,53.28
2023-04-02T13:34:26.585Z,51.73
2023-04-02T13:37:00.444Z,53.00
2023-04-02T13:39:32.214Z,51.79
2023-04-02T13:42:06.604Z,52.40
2023-04-02T13:44:38.428Z,52.40
2023-04-02T13:47:14.753Z,51.74
2023-04-02T13:49:49.844Z,51.77
2023-04-02T13:52:21.593Z,52.64
2023-04-02T13:54:59.994Z,50.83
2023-04-02T13:57:31.816Z,50.86
2023-04-02T14:00:11.015Z,51.62
2023-04-02T14:02:54.012Z,51.14
2023-04-02T14:06:03.007Z,49.19
2023-04-02T14:08:52.507Z,50.38
2023-04-02T14:12:10.932Z,49.93
2023-04-02T14:15:27.568Z,50.44
2023-04-02T14:18:41.332Z,51.21
2023-04-02T14:21:43.743Z,50.70
2023-04-02T14:24:41.836Z,49.67
2023-04-02T14:27:42.856Z,48.78
2023-04-02T14:30:28.169Z,49.69
2023-04-02T14:33:30.394Z,49.91
2023-04-02T14:36:28.302Z,49.11
2023-04-02T14:39:18.124Z,48.72
2023-04-02T14:42:13.734Z,47.16
2023-04-02T14:44:57.745Z,47.72
2023-04-02T14:47:39.703Z,48.17
2023-04-02T14:50:41.805Z,48.15
2023-04-02T14:53:48.902Z,48.32
2023-04-02T14:56:24.506Z,48.43
2023-04-02T14:59:43.224Z,47.65
2023-04-02T15:02:30.465Z,48.49
2023-04-02T15:05:32.391Z,48.02
2023-04-02T15:08:29.553Z,47.57
2023-04-02T15:11:08.423Z,46.81
2023-04-02T15:13:52.299Z,47.58
2023-04-02T15:16:28.824Z,47.94
2023-04-02T15:19:02.825Z,47.42
2023-04-02T15:22:03.922Z,46.67
2023-04-02T15:25:20.624Z,46.92
2023-04-02T15:28:13.660Z,47.44
2023-04-02T15:30:54.368Z,45.92
2023-04-02T15:33:40.536Z,45.74
2023-04-02T15:36:55.939Z,46.10
2023-04-02T15:39:56.737Z,46.91
2023-04-02T15:42:34.716Z,46.82
2023-04-02T15:45:08.119Z,47.46
2023-04-02T15:48:11.872Z,48.22
2023-04-02T15:50:49.564Z,48.16
2023-04-02T15:53:39.188Z,47.95
2023-04-02T15:56:38.551Z,47.79
2023-04-02T15:59:40.847Z,48.31
2023-04-02T16:02:43.767Z,48.85
2023-04-02T16:05:43.394Z,48.13
2023-04-02T16:09:00.904Z,48.38
2023-04-02T16:11:33.660Z,49.41
2023-04-02T16:14:27.908Z,48.97
2023-04-02T16:17:17.500Z,49.20
2023-04-02T16:20:18.393Z,48.20
2023-04-02T16:23:22.282Z,49.49
2023-04-02T16:26:06.165Z,48.50
2023-04-02T16:29:02.269Z,47.90
2023-04-02T16:32:02.251Z,48.12
2023-04-02T16:34:57.644Z,47.97
2023-04-02T16:37:50.333Z,47.75
2023-04-02T16:40:25.139Z,48.36
2023-04-02T16:43:08.681Z,48.63
2023-04-02T16:46:15.760Z,48.43
2023-04-02T16:49:04.711Z,49.18
2023-04-02T16:52:09.230Z,48.89
2023-04-02T16:55:01.172Z,48.87
2023-04-02T16:57:56.945Z,48.11
2023-04-02T17:01:05.037Z,47.67
2023-04-02T17:04:32.582Z,48.49
2023-04-02T17:07:34.576Z,47.92
2023-04-02T17:10:30.155Z,47.68
2023-04-02T17:13:39.063Z,48.17
2023-04-02T17:16:32.467Z,48.40
2023-04-02T17:19:14.020Z,48.39
2023-04-02T17:21:52.186Z,48.87
2023-04-02T17:24:31.968Z,49.60
2023-04-02T17:27:17.076Z,49.82
2023-04-02T17:29:55.067Z,49.61
2023-04-02T17:32:32.620Z,49.64
2023-04-02T17:35:32.188Z,49.25
2023-04-02T17:38:30.415Z,49.36
2023-04-02T17:41:36.596Z,48.52
2023-04-02T17:44:42.270Z,49.08
2023-04-02T17:47:46.267Z,49.91
2023-04-02T17:50:38.660Z,49.36
2023-04-02T17:53:34.708Z,49.54
2023-04-02T17:56:33.586Z,48.90
2023-04-02T17:59:23.719Z,49.15
2023-04-02T18:02:24.707Z,49.54
2023-04-02T18:05:32.762Z,49.91
2023-04-02T18:08:34.826Z,50.41
2023-04-02T18:11:14.177Z,50.97
2023-04-02T18:14:42.360Z,51.44
2023-04-02T18:17:38.645Z,51.82
2023-04-02T18:20:42.899Z,52.33
2023-04-02T18:23:36.393Z,52.67
2023-04-02T18:26:44.258Z,52.99
2023-04-02T18:29:40.269Z,53.27
2023-04-02T18:33:03.308Z,53.66
2023-04-02T18:35:53.527Z,53.50
2023-04-02T18:38:51.016Z,53.80
2023-04-02T18:41:57.461Z,54.36
2023-04-02T18:45:03.382Z,54.58
2023-04-02T18:48:01.608Z,54.63
2023-04-02T18:50:45.965Z,54.59
2023-04-02T18:53:24.286Z,54.93
2023-04-02T18:56:13.998Z,55.43
2023-04-02T18:58:52.798Z,55.53
2023-04-02T19:01:39.611Z,55.43
2023-04-02T19:04:20.543Z,55.87
2023-04-02T19:07:04.109Z,56.37
2023-04-02T19:09:44.189Z,56.55
2023-04-02T19:12:22.228Z,57.09
2023-04-02T19:14:55.914Z,57.14
2023-04-02T19:17:39.450Z,56.95
2023-04-02T19:20:40.783Z,57.45
2023-04-02T19:24:00.054Z,57.26
2023-04-02T19:27:27.282Z,58.85
2023-04-02T19:30:17.169Z,59.61
2023-04-02T19:33:27.095Z,59.06
2023-04-02T19:36:41.005Z,59.30
2023-04-02T19:39:50.032Z,59.57
2023-04-02T19:42:46.239Z,59.21
2023-04-02T19:45:47.859Z,60.08
2023-04-02T19:48:26.720Z,59.95
2023-04-02T19:50:58.460Z,60.10
2023-04-02T19:53:30.414Z,60.59
2023-04-02T19:56:03.406Z,60.86
2023-04-02T19:58:36.476Z,60.68
2023-04-02T20:01:08.231Z,60.87
2023-04-02T20:03:39.992Z,60.98
2023-04-02T20:06:12.141Z,61.22
2023-04-02T20:08:43.884Z,61.20
2023-04-02T20:11:27.624Z,61.56
2023-04-02T20:13:59.304Z,61.82
2023-04-02T20:16:32.704Z,61.63
2023-04-02T20:19:04.354Z,61.48
2023-04-02T20:21:38.548Z,62.27
2023-04-02T20:24:11.225Z,61.67
2023-04-02T20:26:43.770Z,62.18
2023-04-02T20:29:15.664Z,62.36
2023-04-02T20:31:47.427Z,62.96
2023-04-02T20:34:19.252Z,63.35
2023-04-02T20:36:51.847Z,63.02
2023-04-02T20:39:24.123Z,63.46
2023-04-02T20:42:00.938Z,63.72
2023-04-02T20:44:32.581Z,63.91
2023-04-02T20:47:07.036Z,64.84
2023-04-02T20:49:38.654Z,64.27
2023-04-02T20:52:10.765Z,64.17
2023-04-02T20:54:42.505Z,63.90
2023-04-02T20:57:15.607Z,64.06
2023-04-02T20:59:47.335Z,64.44
2023-04-02T21:02:19.095Z,64.51
2023-04-02T21:04:50.943Z,64.16
2023-04-02T21:07:22.745Z,64.39
2023-04-02T21:09:54.425Z,64.66
2023-04-02T21:12:27.000Z,64.99
2023-04-02T21:15:01.805Z,65.28
2023-04-02T21:17:34.404Z,65.54
2023-04-02T21:20:06.903Z,65.58
2023-04-02T21:22:40.799Z,65.35
2023-04-02T21:25:12.575Z,65.68
2023-04-02T21:27:44.339Z,65.91
2023-04-02T21:30:16.386Z,66.11
2023-04-02T21:32:48.152Z,66.19
2023-04-02T21:35:19.834Z,66.11
2023-04-02T21:37:51.956Z,66.37
2023-04-02T21:40:24.659Z,66.57
2023-04-02T21:42:57.605Z,67.01
2023-04-02T21:45:29.372Z,66.78
2023-04-02T21:48:01.326Z,66.53
2023-04-02T21:50:33.152Z,67.00
2023-04-02T21:53:04.971Z,66.30
2023-04-02T21:55:36.646Z,66.59
2023-04-02T21:58:08.531Z,66.87
2023-04-02T22:00:40.386Z,67.77
2023-04-02T22:03:18.504Z,67.21
2023-04-02T22:06:11.899Z,67.28
2023-04-02T22:08:44.661Z,67.01
2023-04-02T22:11:21.257Z,67.23
2023-04-02T22:13:54.118Z,67.39
2023-04-02T22:16:29.846Z,67.51
2023-04-02T22:19:06.010Z,67.57
2023-04-02T22:21:38.353Z,67.34
2023-04-02T22:24:14.848Z,67.38
2023-04-02T22:26:47.383Z,67.72
2023-04-02T22:29:19.181Z,67.73
2023-04-02T22:31:51.035Z,67.75
2023-04-02T22:34:22.734Z,67.98
2023-04-02T22:36:54.508Z,67.94
2023-04-02T22:39:26.364Z,68.34
2023-04-02T22:41:58.055Z,67.77
2023-04-02T22:44:29.803Z,67.85
2023-04-02T22:47:01.570Z,67.92
2023-04-02T22:49:33.433Z,68.35
2023-04-02T22:52:06.067Z,68.15
2023-04-02T22:54:37.843Z,68.49
2023-04-02T22:57:09.671Z,67.79
2023-04-02T22:59:41.476Z,68.19
2023-04-02T23:02:13.278Z,68.42
2023-04-02T23:04:45.111Z,68.45
2023-04-02T23:07:17.117Z,68.72
2023-04-02T23:09:49.398Z,68.43
2023-04-02T23:12:21.375Z,68.63
2023-04-02T23:14:53.621Z,68.77
2023-04-02T23:17:25.387Z,68.64
2023-04-02T23:19:57.177Z,68.15
2023-04-02T23:22:28.896Z,68.52
2023-04-02T23:25:00.842Z,68.58
2023-04-02T23:27:33.642Z,68.58
2023-04-02T23:30:09.929Z,68.65
2023-04-02T23:32:47.888Z,68.82
2023-04-02T23:35:21.917Z,68.86
2023-04-02T23:37:55.133Z,68.81
2023-04-02T23:40:29.371Z,69.03
2023-04-02T23:43:03.369Z,68.86
2023-04-02T23:45:39.168Z,69.18
2023-04-02T23:48:13.702Z,69.18
2023-04-02T23:50:48.774Z,69.20
2023-04-02T23:53:21.937Z,69.23
2023-04-02T23:55:56.142Z,69.44
2023-04-02T23:58:29.394Z,69.51
